Huntington, VT (05462)

3:01 PM EST on January 27, 2015 (GMT -0500)
Shaker Meadow | Change Station
CLOSE
Current Station
Personal Weather Station
Location: Huntington, VT
Elevation: 827 ft
Nearby Weather Stations
Active Advisory: Winter Weather Advisory Active Notice: Public Information Statement

Elev 827 ft 44.29 °N, 72.97 °W | Updated 5 minutes ago

Snow
Snow
7.1 °F
Feels Like 7 °F
N
2.0
Wind Variable Wind from SSW
Gusts 10.0 mph

Today
High -- | Low -- °F
--% Chance of Precip.
Yesterday
High -- | Low -- °F
Precip. -- in
7:15 AM 4:54 PM
First Quarter, 57% visible
Pressure 29.95 in
Visibility 0.8 miles
Clouds Mostly Cloudy 1400 ft
Overcast 2300 ft
Windchill 7 °F
Dew Point 4 °F
Humidity 86%
Rainfall 0.00 in
Snow Depth Not available.
UV 0 out of 12
Pollen .10 out of 12
Air Quality Not available.
Flu Activity Not available.
METAR KBTV 271954Z 34015G23KT 3/4SM R15/3500V4000FT -SN BKN014 OVC023 M13/M17 A2993 RMK AO2 SLP142 SNINCR 2/4 P0002 T11331172

More Conditions Fewer Conditions

Pressure 29.95 in
Visibility 0.8 miles
Clouds Mostly Cloudy 1400 ft
Overcast 2300 ft
Windchill 7 °F
Dew Point 4 °F
Humidity 86%
Rainfall 0.00 in
Snow Depth Not available.
UV 0 out of 12
Pollen .10 out of 12
Air Quality Not available.
Flu Activity Not available.
METAR KBTV 271954Z 34015G23KT 3/4SM R15/3500V4000FT -SN BKN014 OVC023 M13/M17 A2993 RMK AO2 SLP142 SNINCR 2/4 P0002 T11331172

More Conditions Fewer Conditions

10-Day Weather Forecast

Almanac

Astronomy

Jan. 27, 2015 Rise Set
Actual Time
Civil Twilight
Nautical Twilight
Astronomical Twilight
Moon
Length of Visible Light
Length of Day
Tomorrow will be .
, % of the Moon is Illuminated

Today's Extremes

State Highs State Lows

Community

WunderPhotos

Upload Photos

1,790,874 photos uploaded!

WunderBlogs® & News

Nearby

Air Quality

  Air Quality AQ Index Pollutant
Not available.

Snow Depth

Station Depth Elevation

Earthquake Activity

City Distance Mag. Time & Date
Minimum magnitude displayed is 2.5.

Coastal Water Temperatures

Place Temperature

Nearby Weather Stations